• Join FlightAware (Why Join?)
  • Login
  • US Flag 
04:29AM EDT


 

Airport Tracker/Info


-or-


 

Live Flight TrackerFlight Track Log ✈ UAL4843 ✈ 15-Apr-2013 ✈ KEWR - KBWI

Flight Track Log - Related Links

Times and Time Zones

All times are in EDT time to prevent confusion due to time zone crossing. See the UAL4843 flight status page for this flight to view local times or setup timezone preferences in your user account.

Time Position Orientation Groundspeed Altitude Reporting Facility
EDT Latitude Longitude Course Direction KTS MPH feet Rate Location/Type
12:40PM 40.3602 -74.7336 232° Southwest  Level Estimated
12:41PM 40.3184 -74.8038 232° Southwest  Level Estimated
12:42PM 40.2767 -74.8739 232° Southwest  Level Estimated
12:43PM 40.2348 -74.9440 232° Southwest  Level Estimated
12:44PM 40.1930 -75.0139 232° Southwest  Level Estimated
12:45PM 40.1511 -75.0838 232° Southwest  Level Estimated
12:46PM 40.1091 -75.1536 232° Southwest  Level Estimated
12:47PM 40.0671 -75.2233 232° Southwest  Level Estimated
12:48PM 40.0251 -75.2929 232° Southwest  Level Estimated
12:49PM 39.9830 -75.3624 232° Southwest  Level Estimated
12:50PM 39.9409 -75.4319 232° Southwest  Level Estimated
12:51PM 39.8988 -75.5012 232° Southwest  Level Estimated
12:52PM 39.8566 -75.5705 232° Southwest  Level Estimated
12:53PM 39.8144 -75.6397 232° Southwest  Level Estimated
12:54PM 39.7721 -75.7088 231° Southwest  Level Estimated
12:55PM 39.7298 -75.7778 231° Southwest  Level Estimated
12:56PM 39.6874 -75.8467 231° Southwest  Level Estimated
12:57PM 39.6450 -75.9156 231° Southwest  Level Estimated
12:58PM 39.6026 -75.9844 231° Southwest  Level Estimated
12:59PM 39.5601 -76.0530 231° Southwest  Level Estimated
01:00PM 39.5176 -76.1216 231° Southwest  Level Estimated
01:01PM 39.4750 -76.1901 231° Southwest  Level Estimated
01:02PM 39.4324 -76.2586 231° Southwest  Level Estimated
01:03PM 39.3898 -76.3269 231° Southwest  Level Estimated
01:04PM 39.3471 -76.3952 231° Southwest  Level Estimated
01:05PM 39.3044 -76.4634 231° Southwest  Level Estimated
01:06PM 39.2616 -76.5314 231° Southwest  Level Estimated
01:07PM 39.2188 -76.5995 231° Southwest  Level Estimated
01:08PM 39.1759 -76.6674 231° Southwest  Level Estimated
01:09PM 39.1754 -76.6683 231° Southwest  Level Estimated
01:10PM 39.1754 -76.6683 293° West  Level Estimated
01:11PM 39.1754 -76.6683 293° West  Level Estimated
01:12PM 39.1754 -76.6683 293° West  Level Estimated
01:13PM 39.1754 -76.6683 293° West  Level Estimated
01:14PM 39.1754 -76.6683 293° West  Level Estimated
01:15PM 39.1754 -76.6683 293° West  Level Estimated
01:16PM 39.1754 -76.6683 293° West  Level Estimated
01:17PM 39.1754 -76.6683 293° West  Level Estimated
01:18PM 39.1754 -76.6683 293° West  Level Estimated
01:19PM 39.1754 -76.6683 293° West  Level Estimated
01:20PM 39.1754 -76.6683 293° West  Level Estimated
01:21PM 39.1754 -76.6683 293° West  Level Estimated
01:22PM 39.1754 -76.6683 293° West  Level Estimated
01:23PM 39.1754 -76.6683 293° West  Level Estimated
01:24PM 39.1754 -76.6683 293° West  Level Estimated